createdAt,value
2019-01-21T00:00:57.224Z,38.30
2019-01-21T00:05:11.909Z,39.30
2019-01-21T00:09:26.239Z,37.83
2019-01-21T00:13:41.001Z,36.77
2019-01-21T00:17:55.355Z,40.43
2019-01-21T00:22:09.834Z,37.57
2019-01-21T00:26:24.440Z,38.07
2019-01-21T00:30:38.842Z,36.57
2019-01-21T00:34:53.532Z,38.97
2019-01-21T00:38:54.420Z,37.30
2019-01-21T00:43:15.130Z,41.17
2019-01-21T00:47:36.001Z,37.53
2019-01-21T00:51:56.768Z,36.37
2019-01-21T00:56:10.639Z,40.53
2019-01-21T01:00:25.257Z,37.57
2019-01-21T01:04:39.768Z,38.70
2019-01-21T01:08:40.939Z,38.17
2019-01-21T01:13:01.704Z,37.10
2019-01-21T01:17:22.449Z,34.73
2019-01-21T01:21:43.195Z,32.47
2019-01-21T01:26:04.047Z,34.43
2019-01-21T01:30:24.993Z,32.80
2019-01-21T01:34:25.850Z,33.07
2019-01-21T01:38:26.714Z,32.80
2019-01-21T01:42:47.555Z,33.93
2019-01-21T01:47:08.398Z,33.67
2019-01-21T01:51:29.235Z,31.90
2019-01-21T01:55:50.076Z,35.97
2019-01-21T01:59:50.964Z,35.47
2019-01-21T02:04:05.048Z,35.47
2019-01-21T02:08:19.659Z,34.53
2019-01-21T02:12:34.058Z,29.77
2019-01-21T02:16:35.257Z,32.07
2019-01-21T02:21:17.751Z,33.57
2019-01-21T02:25:58.393Z,34.03
2019-01-21T02:30:39.109Z,36.37
2019-01-21T02:35:19.927Z,33.17
2019-01-21T02:40:00.536Z,31.87
2019-01-21T02:44:43.073Z,32.13
2019-01-21T02:49:23.707Z,35.00
2019-01-21T02:54:04.315Z,34.83
2019-01-21T02:58:46.819Z,33.27
2019-01-21T03:03:00.753Z,32.50
2019-01-21T03:07:15.477Z,28.07
2019-01-21T03:11:29.223Z,27.23
2019-01-21T03:15:44.188Z,28.40
2019-01-21T03:20:24.788Z,29.87
2019-01-21T03:25:05.396Z,29.10
2019-01-21T03:29:48.248Z,26.07
2019-01-21T03:34:28.959Z,29.57
2019-01-21T03:39:09.670Z,27.63
2019-01-21T03:43:50.263Z,28.67
2019-01-21T03:48:32.804Z,30.60
2019-01-21T03:53:13.433Z,35.57
2019-01-21T03:57:55.978Z,33.47
2019-01-21T04:02:10.516Z,30.30
2019-01-21T04:06:53.027Z,26.87
2019-01-21T04:11:33.713Z,28.60
2019-01-21T04:16:16.517Z,29.23
2019-01-21T04:20:57.148Z,29.87
2019-01-21T04:25:37.848Z,27.20
2019-01-21T04:30:18.491Z,26.97
2019-01-21T04:34:59.182Z,29.57
2019-01-21T04:39:39.801Z,28.27
2019-01-21T04:44:20.456Z,28.77
2019-01-21T04:49:03.066Z,37.28
2019-01-21T04:53:45.583Z,29.30
2019-01-21T04:58:26.214Z,29.33
2019-01-21T05:02:41.004Z,28.00
2019-01-21T05:06:55.512Z,27.83
2019-01-21T05:11:36.132Z,26.63
2019-01-21T05:16:19.043Z,28.60
2019-01-21T05:20:59.667Z,26.13
2019-01-21T05:25:40.256Z,26.73
2019-01-21T05:30:21.201Z,27.47
2019-01-21T05:35:02.056Z,27.33
2019-01-21T05:39:17.090Z,27.33
2019-01-21T05:43:31.736Z,33.15
2019-01-21T05:47:46.321Z,28.97
2019-01-21T05:52:00.832Z,29.03
2019-01-21T05:56:15.170Z,27.87
2019-01-21T06:00:28.953Z,24.77
2019-01-21T06:04:43.683Z,26.23
2019-01-21T06:08:57.510Z,33.92
2019-01-21T06:13:12.101Z,29.40
2019-01-21T06:17:26.600Z,33.37
2019-01-21T06:21:41.204Z,35.97
2019-01-21T06:25:55.911Z,38.47
2019-01-21T06:30:10.277Z,39.07
2019-01-21T06:34:24.803Z,35.50
2019-01-21T06:38:39.366Z,37.30
2019-01-21T06:42:53.645Z,35.90
2019-01-21T06:47:08.111Z,35.77
2019-01-21T06:51:22.432Z,33.70
2019-01-21T06:55:36.811Z,30.40
2019-01-21T06:59:51.225Z,32.53
2019-01-21T07:04:05.076Z,34.47
2019-01-21T07:08:19.659Z,34.33
2019-01-21T07:12:34.080Z,37.43
2019-01-21T07:16:48.931Z,37.57
2019-01-21T07:21:02.952Z,41.00
2019-01-21T07:25:17.261Z,37.23
2019-01-21T07:29:31.945Z,38.70
2019-01-21T07:33:46.377Z,35.80
2019-01-21T07:38:01.151Z,34.03
2019-01-21T07:42:15.919Z,38.47
2019-01-21T07:46:30.167Z,34.50
2019-01-21T07:51:12.825Z,32.20
2019-01-21T07:55:53.432Z,34.33
2019-01-21T08:00:34.059Z,33.73
2019-01-21T08:04:48.669Z,35.97
2019-01-21T08:09:03.579Z,42.53
2019-01-21T08:13:17.607Z,29.57
2019-01-21T08:17:32.207Z,34.50
2019-01-21T08:21:46.728Z,32.50
2019-01-21T08:26:01.389Z,32.60
2019-01-21T08:30:15.849Z,33.93
2019-01-21T08:34:30.195Z,38.63
2019-01-21T08:38:44.751Z,37.47
2019-01-21T08:42:59.374Z,42.37
2019-01-21T08:47:14.067Z,42.47
2019-01-21T08:51:28.386Z,45.23
2019-01-21T08:55:43.010Z,51.43
2019-01-21T08:59:57.674Z,40.23
2019-01-21T09:04:12.154Z,49.70
2019-01-21T09:08:26.554Z,43.40
2019-01-21T09:12:41.185Z,43.73
2019-01-21T09:16:55.826Z,41.73
2019-01-21T09:21:10.355Z,41.50
2019-01-21T09:25:24.244Z,44.70
2019-01-21T09:29:38.730Z,43.10
2019-01-21T09:33:53.120Z,42.27
2019-01-21T09:38:07.778Z,43.03
2019-01-21T09:42:21.984Z,45.97
2019-01-21T09:46:36.395Z,40.07
2019-01-21T09:50:59.080Z,42.50
2019-01-21T09:55:41.603Z,44.43
2019-01-21T10:00:24.129Z,40.57
2019-01-21T10:04:38.423Z,45.23
2019-01-21T10:08:52.835Z,39.67
2019-01-21T10:13:07.290Z,39.17
2019-01-21T10:17:21.892Z,42.33
2019-01-21T10:21:36.448Z,40.80
2019-01-21T10:25:50.727Z,39.37
2019-01-21T10:30:31.380Z,34.40
2019-01-21T10:35:12.058Z,32.07
2019-01-21T10:39:26.294Z,31.43
2019-01-21T10:43:40.776Z,29.97
2019-01-21T10:47:55.218Z,28.43
2019-01-21T10:52:09.873Z,33.50
2019-01-21T10:56:52.428Z,30.00
2019-01-21T11:01:33.053Z,32.03
2019-01-21T11:06:15.572Z,35.63
2019-01-21T11:10:56.184Z,32.37
2019-01-21T11:15:36.802Z,32.27
2019-01-21T11:20:17.413Z,34.30
2019-01-21T11:24:58.115Z,31.10
2019-01-21T11:29:40.652Z,30.03
2019-01-21T11:34:23.152Z,27.67
2019-01-21T11:39:05.698Z,28.60
2019-01-21T11:43:48.400Z,27.40
2019-01-21T11:48:30.958Z,28.60
2019-01-21T11:53:13.478Z,28.53
2019-01-21T12:02:03.709Z,27.90
2019-01-21T12:06:18.531Z,28.30
2019-01-21T12:10:59.268Z,26.03
2019-01-21T12:15:41.808Z,24.90
2019-01-21T12:20:24.458Z,25.97
2019-01-21T12:24:45.515Z,26.90
2019-01-21T12:29:26.123Z,28.17
2019-01-21T12:34:08.656Z,26.10
2019-01-21T12:38:31.343Z,25.53
2019-01-21T12:43:12.096Z,25.93
2019-01-21T12:47:52.829Z,25.07
2019-01-21T12:52:35.377Z,25.53
2019-01-21T12:57:16.111Z,27.67
2019-01-21T13:01:57.987Z,27.57
2019-01-21T13:06:38.694Z,24.97
2019-01-21T13:11:21.191Z,26.23
2019-01-21T13:16:01.821Z,24.37
2019-01-21T13:20:44.382Z,26.87
2019-01-21T13:25:24.979Z,26.17
2019-01-21T13:30:07.479Z,25.70
2019-01-21T13:34:50.023Z,26.43
2019-01-21T13:39:32.644Z,25.80
2019-01-21T13:44:14.073Z,24.13
2019-01-21T13:48:54.709Z,26.27
2019-01-21T13:53:35.373Z,27.03
2019-01-21T13:58:16.083Z,27.57
2019-01-21T14:02:30.647Z,26.73
2019-01-21T14:06:44.375Z,27.63
2019-01-21T14:10:58.815Z,27.30
2019-01-21T14:15:13.247Z,25.77
2019-01-21T14:19:27.730Z,28.80
2019-01-21T14:23:41.595Z,25.67
2019-01-21T14:27:56.232Z,25.97
2019-01-21T14:32:10.978Z,25.83
2019-01-21T14:36:25.611Z,26.27
2019-01-21T14:41:10.976Z,28.53
2019-01-21T14:45:53.642Z,26.57
2019-01-21T14:50:16.334Z,27.57
2019-01-21T14:54:57.165Z,28.77
2019-01-21T14:59:38.837Z,25.73
2019-01-21T15:04:21.840Z,29.30
2019-01-21T15:09:04.544Z,28.80
2019-01-21T15:13:45.336Z,29.07
2019-01-21T15:18:26.081Z,29.23
2019-01-21T15:23:07.219Z,29.63
2019-01-21T15:27:49.808Z,27.73
2019-01-21T15:32:30.484Z,28.57
2019-01-21T15:37:13.173Z,29.07
2019-01-21T15:41:55.817Z,28.73
2019-01-21T15:46:36.470Z,30.03
2019-01-21T15:51:17.206Z,29.70
2019-01-21T15:55:57.901Z,30.27
2019-01-21T16:00:12.463Z,28.87
2019-01-21T16:04:26.842Z,31.27
2019-01-21T16:08:40.771Z,31.60
2019-01-21T16:12:55.222Z,29.47
2019-01-21T16:17:09.903Z,29.70
2019-01-21T16:21:23.965Z,33.67
2019-01-21T16:25:37.982Z,32.87
2019-01-21T16:29:52.638Z,42.00
2019-01-21T16:34:07.235Z,36.23
2019-01-21T16:38:21.879Z,39.47
2019-01-21T16:42:36.176Z,39.80
2019-01-21T16:46:50.794Z,55.47
2019-01-21T16:51:05.335Z,40.77
2019-01-21T16:55:19.847Z,41.30
2019-01-21T16:59:34.249Z,34.87
2019-01-21T17:03:49.179Z,34.30
2019-01-21T17:08:03.873Z,35.20
2019-01-21T17:12:18.355Z,42.77
2019-01-21T17:16:32.677Z,37.57
2019-01-21T17:20:47.388Z,35.43
2019-01-21T17:25:01.280Z,41.43
2019-01-21T17:29:16.057Z,41.10
2019-01-21T17:33:30.427Z,42.23
2019-01-21T17:37:45.042Z,42.80
2019-01-21T17:41:59.478Z,46.07
2019-01-21T17:46:14.140Z,44.33
2019-01-21T17:50:28.453Z,42.77
2019-01-21T17:54:34.788Z,41.77
2019-01-21T17:58:52.040Z,39.33
2019-01-21T18:03:05.958Z,37.93
2019-01-21T18:07:20.890Z,40.53
2019-01-21T18:11:41.020Z,41.87
2019-01-21T18:15:51.352Z,47.07
2019-01-21T18:19:52.271Z,51.07
2019-01-21T18:24:13.020Z,56.58
2019-01-21T18:28:33.905Z,42.70
2019-01-21T18:32:54.802Z,44.13
2019-01-21T18:37:15.580Z,41.70
2019-01-21T18:41:29.557Z,41.63
2019-01-21T18:45:30.494Z,43.77
2019-01-21T18:49:51.458Z,44.57
2019-01-21T18:54:12.200Z,39.53
2019-01-21T18:58:32.958Z,41.30
2019-01-21T19:02:47.766Z,45.70
2019-01-21T19:07:02.279Z,42.40
2019-01-21T19:11:03.294Z,42.30
2019-01-21T19:20:24.878Z,45.30
2019-01-21T19:24:45.771Z,59.20
2019-01-21T19:28:46.749Z,54.40
2019-01-21T19:37:36.655Z,54.60
2019-01-21T19:41:37.621Z,59.23
2019-01-21T19:45:38.525Z,58.77
2019-01-21T19:49:59.280Z,49.17
2019-01-21T19:54:20.255Z,43.73
2019-01-21T19:58:41.206Z,53.67
2019-01-21T20:02:55.841Z,59.57
2019-01-21T20:06:56.857Z,45.10
2019-01-21T20:11:17.931Z,46.80
2019-01-21T20:15:38.863Z,42.83
2019-01-21T20:20:00.462Z,43.57
2019-01-21T20:24:21.312Z,41.47
2019-01-21T20:28:42.066Z,44.63
2019-01-21T20:33:03.045Z,45.77
2019-01-21T20:37:23.826Z,63.97
2019-01-21T20:41:24.842Z,61.33
2019-01-21T20:45:45.778Z,62.00
2019-01-21T20:49:46.680Z,54.97
2019-01-21T20:54:07.563Z,54.03
2019-01-21T20:58:28.494Z,47.63
2019-01-21T21:02:29.490Z,47.27
2019-01-21T21:06:50.355Z,50.97
2019-01-21T21:11:11.169Z,52.73
2019-01-21T21:15:31.944Z,56.73
2019-01-21T21:19:32.894Z,58.37
2019-01-21T21:23:33.839Z,56.93
2019-01-21T21:27:34.977Z,58.47
2019-01-21T21:31:55.886Z,56.73
2019-01-21T21:35:56.857Z,54.43
2019-01-21T21:40:18.494Z,49.47
2019-01-21T21:44:39.238Z,46.97
2019-01-21T21:48:59.967Z,51.93
2019-01-21T21:53:20.779Z,54.53
2019-01-21T21:57:41.823Z,66.97
2019-01-21T22:02:02.841Z,79.87
2019-01-21T22:06:04.046Z,76.90
2019-01-21T22:10:25.478Z,73.37
2019-01-21T22:14:26.349Z,70.70
2019-01-21T22:18:47.170Z,71.13
2019-01-21T22:23:07.927Z,63.10
2019-01-21T22:27:28.773Z,61.00
2019-01-21T22:31:49.504Z,62.30
2019-01-21T22:36:10.309Z,64.40
2019-01-21T22:40:31.159Z,66.67
2019-01-21T22:44:51.977Z,59.90
2019-01-21T22:49:12.815Z,63.43
2019-01-21T22:53:33.705Z,58.00
2019-01-21T22:57:54.644Z,57.33
2019-01-21T23:02:09.487Z,59.77
2019-01-21T23:06:23.531Z,57.43
2019-01-21T23:10:37.460Z,55.07
2019-01-21T23:14:52.057Z,55.47
2019-01-21T23:19:05.871Z,51.93
2019-01-21T23:23:20.734Z,52.53
2019-01-21T23:27:21.609Z,49.50
2019-01-21T23:31:42.454Z,46.90
2019-01-21T23:36:03.411Z,49.43
2019-01-21T23:40:24.289Z,51.27
2019-01-21T23:44:38.189Z,52.73
2019-01-21T23:48:39.157Z,53.70
2019-01-21T23:52:59.908Z,54.63
2019-01-21T23:57:20.778Z,54.40
